DAUL

Details ICAO DAUL (LOO)
Name LAGHOUAT
Region Algeria
Timezone Africa/Algiers (UTC+1.0)
Plans Departing 6
Arriving 7
Stats Elevation 2,510 ft / 765 m (AMSL)
Location 33.764384° 2.928345°
Runways 2
Magnetic Variation 0.953° E
Sunrise 2018-06-20 04:39:08 UTC / 2018-06-20 05:39:08 Local
Sunset 2018-06-20 19:03:03 UTC / 2018-06-20 20:03:03 Local
Advertisement - Login to hide

Runways

ID Width Length Bearing (true) Bearing (mag) Surface Threshold Offset Overrun Length
16L 148 ft / 45 m 12,512 ft / 3,814 m 157.05° 156.10° Asphalt 0 ft / 0 m 328 ft / 100 m
16R 148 ft / 45 m 12,503 ft / 3,811 m 157.03° 156.08° Asphalt 0 ft / 0 m 0 ft / 0 m
34L 148 ft / 45 m 12,503 ft / 3,811 m 337.04° 336.09° Asphalt 0 ft / 0 m 610 ft / 186 m
34R 148 ft / 45 m 12,512 ft / 3,814 m 337.06° 336.11° Asphalt 0 ft / 0 m 328 ft / 100 m

Map

Weather


0- 5 10 15 20 25 30 35+ Temperature / ° C

Clouds and Precipitation
Forecast for 2018-06-20 12:00 UTC. Updated a minute ago

Ground ~20,000 ft ~40,000 ft Winds

METAR

DAUL 200900Z 08014KT CAVOK 27/10 Q1020

TAF

Not found
Warning: Do not use this data for real-world aviation or navigation. No guarantee of current accuracy is given.